Time;durP1;ratioP1;P1;durP2;ratioP2;P2;SDS_P1;SDS_P2;PMS_P1;PMS_P2;Temp;Humidity;BMP_temperature;BMP_pressure;BME280_temperature;BME280_humidity;BME280_pressure;Samples;Min_cycle;Max_cycle;Signal;HPM_P1;HPM_P2
2022/02/17 00:00:34;;;;;;;14.00;2.92;;;12.40;99.90;;;;;;4997973;28;20050;-89
2022/02/17 00:03:00;;;;;;;12.95;2.72;;;12.40;99.90;;;;;;4997893;28;20130;-91
2022/02/17 00:05:26;;;;;;;15.85;3.47;;;12.40;99.90;;;;;;4981663;28;20092;-89
2022/02/17 00:07:52;;;;;;;15.32;2.67;;;12.50;99.90;;;;;;5014049;28;20045;-90
2022/02/17 00:10:19;;;;;;;14.45;2.85;;;12.50;99.90;;;;;;4997406;28;20050;-91
2022/02/17 00:12:45;;;;;;;14.82;2.83;;;12.50;99.90;;;;;;5015078;28;20042;-90
2022/02/17 00:15:11;;;;;;;20.25;3.72;;;12.50;99.90;;;;;;4997386;28;20026;-90
2022/02/17 00:17:39;;;;;;;14.25;2.65;;;12.50;99.90;;;;;;4981494;28;20120;-91
2022/02/17 00:20:06;;;;;;;17.50;3.58;;;12.50;99.90;;;;;;5013590;28;20133;-90
2022/02/17 00:22:32;;;;;;;14.30;3.28;;;12.50;99.90;;;;;;5013724;28;20122;-89
2022/02/17 00:24:57;;;;;;;14.60;2.67;;;12.50;99.90;;;;;;5012228;23;20078;-83
2022/02/17 00:27:23;;;;;;;15.63;3.05;;;12.50;99.90;;;;;;5012820;28;20486;-84
2022/02/17 00:29:48;;;;;;;16.02;3.25;;;12.50;99.90;;;;;;5013893;28;20038;-85
2022/02/17 00:32:14;;;;;;;15.88;2.83;;;12.50;99.90;;;;;;5013800;28;20030;-83
2022/02/17 00:34:40;;;;;;;15.85;2.97;;;12.40;99.90;;;;;;4996210;28;20077;-84
2022/02/17 00:37:06;;;;;;;13.93;2.65;;;12.40;99.90;;;;;;4996217;28;20073;-85
2022/02/17 00:39:33;;;;;;;14.75;2.55;;;12.30;99.90;;;;;;4996508;28;20038;-84
2022/02/17 00:41:58;;;;;;;13.88;2.95;;;12.30;99.90;;;;;;5012423;28;20479;-84
2022/02/17 00:44:24;;;;;;;10.25;2.50;;;12.30;99.90;;;;;;4996435;28;20121;-84
2022/02/17 00:46:51;;;;;;;10.43;2.35;;;12.30;99.90;;;;;;5012576;28;20042;-85
2022/02/17 00:49:17;;;;;;;11.85;3.00;;;12.30;99.90;;;;;;5013697;28;20463;-84
2022/02/17 00:51:43;;;;;;;11.73;2.65;;;12.30;99.90;;;;;;5012309;28;20044;-84
2022/02/17 00:54:09;;;;;;;11.77;2.67;;;12.20;99.90;;;;;;5012536;28;20062;-83
2022/02/17 00:56:35;;;;;;;15.27;2.78;;;12.20;99.90;;;;;;5012141;28;20034;-84
2022/02/17 00:59:01;;;;;;;12.55;2.83;;;12.20;99.90;;;;;;4995954;28;20038;-84
2022/02/17 01:01:27;;;;;;;13.02;3.20;;;12.20;99.90;;;;;;5016908;28;20036;-84
2022/02/17 01:03:53;;;;;;;19.60;3.08;;;12.20;99.90;;;;;;5001376;28;20034;-84
2022/02/17 01:06:19;;;;;;;15.07;3.17;;;12.20;99.90;;;;;;5028215;28;20038;-85
2022/02/17 01:08:44;;;;;;;16.90;3.97;;;12.20;99.90;;;;;;5035141;28;20041;-84
2022/02/17 01:11:10;;;;;;;15.35;3.38;;;12.10;99.90;;;;;;5004508;28;20038;-84
2022/02/17 01:13:36;;;;;;;18.58;3.97;;;12.20;99.90;;;;;;5017433;28;20382;-84
2022/02/17 01:16:01;;;;;;;13.00;3.40;;;12.10;99.90;;;;;;5012857;28;20030;-84
2022/02/17 01:18:27;;;;;;;11.23;1.98;;;12.10;99.90;;;;;;5024313;28;20034;-84
2022/02/17 01:20:52;;;;;;;10.00;1.75;;;12.00;99.90;;;;;;4983548;28;20571;-86
2022/02/17 01:23:18;;;;;;;7.88;1.25;;;11.80;99.90;;;;;;5016185;28;20032;-85
2022/02/17 01:25:44;;;;;;;12.93;1.90;;;11.50;99.90;;;;;;5015947;28;20064;-85
2022/02/17 01:28:10;;;;;;;7.85;1.95;;;11.30;99.90;;;;;;5015688;28;20029;-85
2022/02/17 01:30:36;;;;;;;13.13;2.13;;;11.00;99.90;;;;;;4999041;28;20038;-85
2022/02/17 01:33:02;;;;;;;11.00;1.90;;;10.90;99.90;;;;;;5011615;28;20374;-85
2022/02/17 01:35:28;;;;;;;13.35;2.45;;;10.90;99.90;;;;;;4980033;28;20069;-85
2022/02/17 01:37:54;;;;;;;15.18;2.33;;;10.80;99.90;;;;;;4997576;28;20039;-85
2022/02/17 01:40:19;;;;;;;10.95;1.98;;;10.80;99.90;;;;;;4996966;28;20033;-85
2022/02/17 01:42:46;;;;;;;11.32;2.42;;;10.80;99.90;;;;;;4995745;28;20113;-84
2022/02/17 01:45:13;;;;;;;13.93;2.55;;;10.80;99.90;;;;;;4979745;28;20034;-85
2022/02/17 01:47:42;;;;;;;14.45;2.50;;;10.80;99.90;;;;;;4996076;28;20497;-85
2022/02/17 01:50:08;;;;;;;24.40;3.60;;;10.80;99.90;;;;;;4996716;28;20527;-85
2022/02/17 01:52:33;;;;;;;20.35;3.78;;;10.80;99.90;;;;;;4963737;28;20129;-84
2022/02/17 01:54:59;;;;;;;24.65;4.57;;;10.80;99.90;;;;;;4995642;28;20081;-85
2022/02/17 01:57:27;;;;;;;21.67;3.95;;;10.80;99.90;;;;;;4996888;28;20113;-85
2022/02/17 01:59:54;;;;;;;21.10;3.75;;;10.90;99.90;;;;;;4996691;28;20433;-84
2022/02/17 02:02:21;;;;;;;30.27;5.35;;;10.90;99.90;;;;;;4995433;28;20026;-84
2022/02/17 02:04:47;;;;;;;22.27;4.95;;;11.00;99.90;;;;;;4979796;28;20109;-84
2022/02/17 02:07:13;;;;;;;19.75;3.85;;;11.00;99.90;;;;;;4979139;28;20049;-83
2022/02/17 02:09:40;;;;;;;22.05;4.50;;;11.00;99.90;;;;;;4995497;28;20052;-83
2022/02/17 02:12:07;;;;;;;26.85;4.80;;;11.10;99.90;;;;;;4994830;28;20042;-84
2022/02/17 02:14:33;;;;;;;25.50;4.57;;;11.10;99.90;;;;;;4996635;28;20034;-83
2022/02/17 02:16:59;;;;;;;28.95;5.88;;;11.20;99.90;;;;;;4996352;28;20089;-86
2022/02/17 02:19:24;;;;;;;22.73;4.63;;;11.20;99.90;;;;;;4995398;28;20474;-84
2022/02/17 02:21:50;;;;;;;26.35;5.55;;;11.20;99.90;;;;;;4979205;28;20065;-84
2022/02/17 02:24:16;;;;;;;32.92;6.43;;;11.20;99.90;;;;;;4978470;28;20467;-84
2022/02/17 02:26:42;;;;;;;24.58;4.40;;;11.20;99.90;;;;;;4995233;28;20133;-84
2022/02/17 02:29:08;;;;;;;27.77;4.93;;;11.20;99.90;;;;;;4978612;28;20383;-84
2022/02/17 02:31:33;;;;;;;28.25;5.60;;;11.20;99.90;;;;;;4962816;28;20030;-83
2022/02/17 02:33:59;;;;;;;25.08;4.93;;;11.20;99.90;;;;;;4978877;28;20042;-85
2022/02/17 02:36:25;;;;;;;19.50;3.72;;;11.20;99.90;;;;;;4978196;28;20125;-84
2022/02/17 02:38:52;;;;;;;28.42;5.15;;;11.20;99.90;;;;;;4995078;28;20034;-84
2022/02/17 02:41:18;;;;;;;21.95;4.32;;;11.20;99.90;;;;;;4994658;28;20029;-84
2022/02/17 02:43:45;;;;;;;21.83;3.65;;;11.20;99.90;;;;;;4996126;28;20110;-83
2022/02/17 02:46:10;;;;;;;27.35;4.82;;;11.20;99.90;;;;;;4994580;28;20081;-84
2022/02/17 02:48:36;;;;;;;20.10;4.53;;;11.20;99.90;;;;;;4978714;28;20026;-84
2022/02/17 02:51:02;;;;;;;20.67;4.50;;;11.20;99.90;;;;;;4995968;28;20113;-87
2022/02/17 02:53:28;;;;;;;21.30;3.70;;;11.20;99.90;;;;;;4994692;28;20061;-84
2022/02/17 02:55:54;;;;;;;23.98;4.85;;;11.20;99.90;;;;;;4995790;28;20080;-83
2022/02/17 02:58:20;;;;;;;21.92;4.90;;;11.20;99.90;;;;;;4977988;28;20129;-84
2022/02/17 03:00:48;;;;;;;27.00;5.30;;;11.20;99.90;;;;;;4994785;28;20034;-84
2022/02/17 03:03:14;;;;;;;33.88;6.30;;;11.20;99.90;;;;;;4977996;28;20042;-85
2022/02/17 03:05:40;;;;;;;24.38;4.75;;;11.20;99.90;;;;;;4994455;28;20034;-84
2022/02/17 03:08:06;;;;;;;31.75;6.25;;;11.10;99.90;;;;;;4994367;28;20026;-85
2022/02/17 03:10:32;;;;;;;23.83;4.55;;;11.20;99.90;;;;;;4994839;28;20034;-84
2022/02/17 03:12:59;;;;;;;25.95;5.07;;;11.20;99.90;;;;;;4978119;28;20535;-84
2022/02/17 03:15:25;;;;;;;22.92;4.47;;;11.10;99.90;;;;;;4995025;28;20034;-84
2022/02/17 03:17:51;;;;;;;24.85;5.07;;;11.10;99.90;;;;;;5010423;28;20045;-84
2022/02/17 03:20:18;;;;;;;28.35;4.22;;;11.10;99.90;;;;;;4994288;28;20054;-84
2022/02/17 03:22:43;;;;;;;29.95;5.95;;;11.10;99.90;;;;;;4994772;28;20026;-84
2022/02/17 03:25:11;;;;;;;20.45;4.50;;;11.10;99.90;;;;;;4993443;28;20049;-85
2022/02/17 03:27:38;;;;;;;19.92;3.80;;;11.00;99.90;;;;;;4995293;28;20030;-85
2022/02/17 03:30:05;;;;;;;16.92;3.80;;;11.00;99.90;;;;;;4994080;28;20430;-84
2022/02/17 03:32:31;;;;;;;28.95;5.93;;;11.00;99.90;;;;;;4977799;28;20031;-84
2022/02/17 03:34:57;;;;;;;22.58;3.95;;;10.90;99.90;;;;;;4993816;28;20360;-83
2022/02/17 03:37:22;;;;;;;19.30;3.47;;;10.90;99.90;;;;;;4961233;28;20037;-84
2022/02/17 03:39:48;;;;;;;18.10;3.67;;;10.90;99.90;;;;;;4977276;28;20488;-83
2022/02/17 03:42:14;;;;;;;20.02;4.35;;;10.90;99.90;;;;;;4993463;28;20066;-83
2022/02/17 03:44:40;;;;;;;14.38;3.33;;;10.80;99.90;;;;;;4993359;28;20041;-83
2022/02/17 03:47:06;;;;;;;14.38;3.25;;;10.80;99.90;;;;;;4993684;28;20034;-83
2022/02/17 03:49:31;;;;;;;21.10;3.92;;;10.80;99.90;;;;;;4994200;28;20077;-83
2022/02/17 03:51:57;;;;;;;18.52;3.60;;;10.70;99.90;;;;;;4961292;28;20085;-83
2022/02/17 03:54:23;;;;;;;16.92;3.17;;;10.70;99.90;;;;;;4976960;28;20038;-83
2022/02/17 03:56:48;;;;;;;17.85;3.03;;;10.70;99.90;;;;;;4961170;28;20037;-83
2022/02/17 03:59:14;;;;;;;13.05;3.50;;;10.70;99.90;;;;;;4994249;28;20042;-83
2022/02/17 04:01:40;;;;;;;17.15;4.07;;;10.60;99.90;;;;;;4977169;28;20034;-83
2022/02/17 04:04:08;;;;;;;18.70;3.63;;;10.60;99.90;;;;;;4977210;28;20030;-84
2022/02/17 04:06:34;;;;;;;20.88;4.03;;;10.60;99.90;;;;;;4993208;28;20447;-84
2022/02/17 04:09:01;;;;;;;17.58;3.33;;;10.60;99.90;;;;;;4993129;28;20027;-84
2022/02/17 04:11:26;;;;;;;20.90;4.85;;;10.60;99.90;;;;;;4994183;28;20514;-84
2022/02/17 04:13:53;;;;;;;20.85;3.72;;;10.60;99.90;;;;;;4993434;28;20182;-84
2022/02/17 04:16:19;;;;;;;20.92;3.40;;;10.70;99.90;;;;;;4977105;28;20081;-84
2022/02/17 04:18:46;;;;;;;19.30;3.55;;;10.70;99.90;;;;;;4994589;28;20096;-84
2022/02/17 04:21:12;;;;;;;20.13;3.70;;;10.60;99.90;;;;;;4993138;28;20070;-84
2022/02/17 04:23:44;;;;;;;21.48;3.80;;;10.70;99.90;;;;;;4977150;28;20042;-83
2022/02/17 04:26:14;;;;;;;19.42;3.80;;;10.70;99.90;;;;;;4992944;28;20360;-84
2022/02/17 04:28:40;;;;;;;20.53;3.07;;;10.70;99.90;;;;;;4993230;28;20084;-83
2022/02/17 04:31:06;;;;;;;21.08;4.03;;;10.70;99.90;;;;;;4993033;28;20073;-83
2022/02/17 04:33:33;;;;;;;21.92;4.20;;;10.70;99.90;;;;;;4994316;28;20569;-83
2022/02/17 04:35:59;;;;;;;21.83;4.25;;;10.70;99.90;;;;;;4992145;28;20032;-83
2022/02/17 04:38:25;;;;;;;29.13;4.93;;;10.70;99.90;;;;;;4976951;28;20382;-84
2022/02/17 04:43:34;;;;;;;24.65;4.43;;;10.70;99.90;;;;;;5010742;28;20065;-82
2022/02/17 04:46:01;;;;;;;22.17;4.03;;;10.70;99.90;;;;;;4999929;28;20030;-83
2022/02/17 04:48:27;;;;;;;22.23;4.72;;;10.80;99.90;;;;;;5010254;28;20089;-84
2022/02/17 04:50:52;;;;;;;28.77;4.43;;;10.70;99.90;;;;;;4992181;28;20475;-83
2022/02/17 04:53:18;;;;;;;27.95;5.32;;;10.80;99.90;;;;;;5001923;28;20035;-83
2022/02/17 04:55:44;;;;;;;25.90;4.68;;;10.80;99.90;;;;;;4976593;28;20034;-82
2022/02/17 04:58:10;;;;;;;23.92;4.50;;;10.80;99.90;;;;;;4977230;28;20034;-83
2022/02/17 05:00:35;;;;;;;21.83;4.30;;;10.70;99.90;;;;;;4976060;28;20038;-83
2022/02/17 05:03:01;;;;;;;25.92;4.00;;;10.70;99.90;;;;;;5008917;28;20062;-83
2022/02/17 05:05:26;;;;;;;24.33;4.53;;;10.70;99.90;;;;;;5008528;28;20027;-83
2022/02/17 05:07:52;;;;;;;29.00;5.30;;;10.70;99.90;;;;;;5008903;28;20121;-83
2022/02/17 05:10:18;;;;;;;21.17;5.47;;;10.70;99.90;;;;;;4976568;28;20129;-83
2022/02/17 05:12:44;;;;;;;26.20;4.70;;;10.70;99.90;;;;;;4994700;28;20039;-83
2022/02/17 05:15:09;;;;;;;21.05;4.60;;;10.70;99.90;;;;;;4994099;28;20037;-83
2022/02/17 05:17:35;;;;;;;20.25;3.67;;;10.70;99.90;;;;;;5008620;28;20042;-82
2022/02/17 05:20:01;;;;;;;23.50;4.75;;;10.70;99.90;;;;;;4992721;28;20422;-84
2022/02/17 05:22:26;;;;;;;21.13;4.18;;;10.70;99.90;;;;;;5008455;28;20057;-83
2022/02/17 05:24:52;;;;;;;28.35;5.63;;;10.70;99.90;;;;;;4992080;28;20529;-85
2022/02/17 05:27:18;;;;;;;22.70;4.90;;;10.70;99.90;;;;;;4977494;28;20125;-84
2022/02/17 05:29:43;;;;;;;25.88;4.63;;;10.70;99.90;;;;;;4994401;28;20082;-83
2022/02/17 05:32:10;;;;;;;26.40;4.93;;;10.70;99.90;;;;;;4996374;28;20029;-83
2022/02/17 05:34:36;;;;;;;23.20;4.85;;;10.70;99.90;;;;;;5012427;28;20026;-84
2022/02/17 05:37:02;;;;;;;24.05;5.13;;;10.70;99.90;;;;;;5013793;28;20034;-84
2022/02/17 05:39:27;;;;;;;33.72;6.03;;;10.70;99.90;;;;;;5011751;28;20065;-84
2022/02/17 05:41:54;;;;;;;34.03;5.55;;;10.70;99.90;;;;;;4995960;28;20036;-83
2022/02/17 05:44:19;;;;;;;28.88;6.07;;;10.70;99.90;;;;;;5011620;28;20081;-85
2022/02/17 05:46:45;;;;;;;27.55;4.72;;;10.70;99.90;;;;;;4996826;28;20034;-84
2022/02/17 05:49:13;;;;;;;27.13;4.05;;;10.60;99.90;;;;;;4999675;28;20026;-84
2022/02/17 05:51:39;;;;;;;21.52;4.72;;;10.40;99.90;;;;;;4983128;28;20045;-84
2022/02/17 05:54:04;;;;;;;22.30;3.53;;;10.20;99.90;;;;;;5016662;28;20030;-84
2022/02/17 05:56:30;;;;;;;14.75;2.45;;;9.90;99.90;;;;;;5015274;28;20044;-82
2022/02/17 05:58:56;;;;;;;12.85;2.28;;;9.70;99.90;;;;;;4998966;28;20104;-85
2022/02/17 06:01:22;;;;;;;13.52;2.47;;;9.60;99.90;;;;;;5015842;28;20072;-85
2022/02/17 06:03:47;;;;;;;11.10;2.42;;;9.40;99.90;;;;;;4995698;28;20066;-85
2022/02/17 06:06:13;;;;;;;14.57;3.20;;;9.30;99.90;;;;;;4995691;28;20487;-85
2022/02/17 06:08:38;;;;;;;17.02;2.92;;;9.20;99.90;;;;;;4995319;28;20034;-85
2022/02/17 06:11:04;;;;;;;16.90;2.50;;;9.10;99.90;;;;;;4979280;28;20030;-85
2022/02/17 06:13:30;;;;;;;15.93;4.25;;;9.00;99.90;;;;;;4996918;28;20039;-85
2022/02/17 06:15:55;;;;;;;14.80;3.33;;;9.00;99.90;;;;;;4978954;28;20419;-84
2022/02/17 06:18:21;;;;;;;19.33;3.10;;;9.00;99.90;;;;;;4979134;28;20555;-85
2022/02/17 06:20:46;;;;;;;17.13;3.58;;;8.90;99.90;;;;;;4982392;28;20037;-83
2022/02/17 06:23:12;;;;;;;23.67;2.70;;;8.90;99.90;;;;;;4983902;28;20041;-85
2022/02/17 06:25:38;;;;;;;23.48;3.40;;;8.90;99.90;;;;;;4995141;28;20368;-84
2022/02/17 06:28:04;;;;;;;22.92;3.53;;;8.90;99.90;;;;;;4995449;28;20047;-85
2022/02/17 06:30:30;;;;;;;16.70;3.53;;;8.80;99.90;;;;;;4997820;28;20034;-85
2022/02/17 06:32:56;;;;;;;23.05;3.80;;;8.80;99.90;;;;;;4999626;28;20037;-84
2022/02/17 06:35:29;;;;;;;18.33;3.30;;;8.80;99.90;;;;;;4998341;28;20044;-84
2022/02/17 06:37:55;;;;;;;19.02;3.60;;;8.80;99.90;;;;;;5016091;28;20053;-84
2022/02/17 06:40:22;;;;;;;23.60;3.70;;;8.80;99.90;;;;;;5014556;28;20054;-85
2022/02/17 06:42:48;;;;;;;15.98;2.47;;;8.80;99.90;;;;;;4997858;28;20030;-84
2022/02/17 06:45:13;;;;;;;22.75;3.40;;;8.80;99.90;;;;;;5014350;28;20034;-84
2022/02/17 06:47:40;;;;;;;16.98;2.88;;;8.80;99.90;;;;;;4998161;28;20030;-83
2022/02/17 06:50:07;;;;;;;17.10;3.28;;;8.80;99.90;;;;;;5014436;28;20064;-82
2022/02/17 06:52:33;;;;;;;15.32;3.45;;;8.80;99.90;;;;;;4981646;28;20032;-83
2022/02/17 06:55:00;;;;;;;16.58;3.10;;;8.80;99.90;;;;;;5014673;28;20054;-83
2022/02/17 06:57:25;;;;;;;15.70;3.17;;;8.80;99.90;;;;;;5013749;28;20062;-83
2022/02/17 06:59:52;;;;;;;14.55;2.58;;;8.90;99.90;;;;;;4996929;28;20407;-83
2022/02/17 07:02:27;;;;;;;23.02;3.38;;;8.90;99.90;;;;;;5014074;28;20062;-83
2022/02/17 07:04:53;;;;;;;15.65;2.45;;;8.90;99.90;;;;;;5014022;28;20081;-83
2022/02/17 07:07:19;;;;;;;16.92;3.13;;;8.90;99.90;;;;;;5013950;28;20033;-83
2022/02/17 07:09:46;;;;;;;17.52;3.22;;;8.90;99.90;;;;;;4997257;28;20037;-83
2022/02/17 07:12:12;;;;;;;23.33;4.03;;;8.90;99.90;;;;;;5013880;28;20034;-84
2022/02/17 07:14:38;;;;;;;17.17;2.55;;;8.90;99.90;;;;;;5015134;28;20025;-84
2022/02/17 07:17:04;;;;;;;20.83;2.85;;;8.90;99.90;;;;;;4997323;28;20037;-84
2022/02/17 07:19:30;;;;;;;15.55;2.88;;;8.90;99.90;;;;;;4980780;28;20500;-84
2022/02/17 07:21:55;;;;;;;15.68;2.83;;;8.90;99.90;;;;;;4981288;28;20042;-83
2022/02/17 07:24:22;;;;;;;9.35;2.10;;;8.90;99.90;;;;;;4997223;28;20066;-84
2022/02/17 07:26:48;;;;;;;12.25;1.83;;;8.90;99.90;;;;;;5013349;28;20085;-83
2022/02/17 07:29:15;;;;;;;14.05;2.47;;;8.90;99.90;;;;;;5013881;28;20073;-84
2022/02/17 07:31:41;;;;;;;12.88;2.30;;;8.90;99.90;;;;;;4997058;28;20038;-83
2022/02/17 07:34:07;;;;;;;12.10;2.65;;;8.90;99.90;;;;;;5014855;28;20125;-83
2022/02/17 07:36:33;;;;;;;14.68;2.53;;;8.90;99.90;;;;;;4996974;28;20454;-84
2022/02/17 07:38:59;;;;;;;14.13;2.97;;;9.00;99.90;;;;;;5013554;28;20505;-83
2022/02/17 07:41:25;;;;;;;17.00;3.13;;;9.00;99.90;;;;;;5010310;28;20029;-83
2022/02/17 07:43:51;;;;;;;17.27;3.10;;;8.90;99.90;;;;;;5007720;28;20034;-84
2022/02/17 07:46:17;;;;;;;18.55;2.85;;;8.90;99.90;;;;;;4992736;28;20037;-83
2022/02/17 07:48:44;;;;;;;10.18;2.05;;;8.90;99.90;;;;;;5011500;28;20447;-83
2022/02/17 07:51:10;;;;;;;12.13;2.33;;;8.90;99.90;;;;;;5008340;28;20447;-83
2022/02/17 07:53:36;;;;;;;10.25;2.22;;;8.90;99.90;;;;;;4992348;28;20079;-84
2022/02/17 07:56:02;;;;;;;16.88;3.08;;;8.80;99.90;;;;;;4996309;28;20061;-84
2022/02/17 07:58:27;;;;;;;21.42;2.88;;;8.80;99.90;;;;;;5010486;28;20035;-83
2022/02/17 08:00:53;;;;;;;18.17;5.53;;;8.70;99.90;;;;;;5013698;28;20069;-84
2022/02/17 08:03:19;;;;;;;18.27;2.95;;;8.80;99.90;;;;;;4990857;28;20034;-83
2022/02/17 08:05:45;;;;;;;13.38;2.53;;;8.80;99.90;;;;;;5006519;28;20050;-83
2022/02/17 08:08:12;;;;;;;17.83;2.55;;;8.80;99.90;;;;;;5009532;28;20030;-84
2022/02/17 08:10:38;;;;;;;13.05;2.35;;;8.80;99.90;;;;;;5026474;28;20029;-84
2022/02/17 08:13:05;;;;;;;14.23;2.85;;;8.90;99.90;;;;;;5031472;28;20056;-84
2022/02/17 08:15:32;;;;;;;18.13;2.85;;;8.90;99.90;;;;;;5016013;28;20026;-83
2022/02/17 08:17:57;;;;;;;14.32;2.33;;;8.90;99.90;;;;;;5014878;28;20034;-84
2022/02/17 08:20:23;;;;;;;14.50;2.40;;;9.00;99.90;;;;;;5007884;28;20049;-84
2022/02/17 08:22:54;;;;;;;12.50;2.50;;;9.00;99.90;;;;;;5013254;28;20462;-83
2022/02/17 08:25:21;;;;;;;11.48;2.30;;;9.00;99.90;;;;;;5012253;28;20038;-83
2022/02/17 08:27:51;;;;;;;10.85;1.90;;;9.00;99.90;;;;;;4995636;28;20117;-82
2022/02/17 08:30:17;;;;;;;10.98;2.28;;;9.10;99.90;;;;;;5011957;28;20026;-84
2022/02/17 08:32:43;;;;;;;14.70;2.47;;;9.10;99.90;;;;;;5011633;28;20029;-83
2022/02/17 08:35:10;;;;;;;17.20;3.67;;;9.10;99.90;;;;;;5012001;28;20427;-83
2022/02/17 08:37:37;;;;;;;14.75;2.85;;;9.10;99.90;;;;;;5011905;28;20038;-85
2022/02/17 08:40:05;;;;;;;11.95;2.20;;;9.10;99.90;;;;;;5012285;28;20040;-83
2022/02/17 08:42:30;;;;;;;15.52;2.78;;;9.10;99.90;;;;;;5011957;28;20176;-84
2022/02/17 08:44:56;;;;;;;15.07;2.30;;;9.20;99.90;;;;;;5013706;28;20063;-83
2022/02/17 08:47:22;;;;;;;14.82;2.83;;;9.20;99.90;;;;;;5013425;28;20042;-84
2022/02/17 08:49:48;;;;;;;15.20;2.42;;;9.20;99.90;;;;;;5012092;28;20033;-82
2022/02/17 08:52:14;;;;;;;11.32;3.47;;;9.20;99.90;;;;;;5012326;28;20038;-83
2022/02/17 08:54:39;;;;;;;15.82;2.38;;;9.20;99.90;;;;;;5013171;28;20113;-83
2022/02/17 08:57:05;;;;;;;15.60;2.05;;;9.20;99.90;;;;;;5011640;28;20140;-83
2022/02/17 08:59:31;;;;;;;14.77;3.58;;;9.20;99.90;;;;;;4995769;28;20136;-84
2022/02/17 09:01:57;;;;;;;13.10;2.45;;;9.20;99.90;;;;;;5011777;28;20030;-84
2022/02/17 09:04:23;;;;;;;12.77;2.28;;;9.30;99.90;;;;;;4995410;28;20348;-85
2022/02/17 09:06:49;;;;;;;12.23;2.33;;;9.30;99.90;;;;;;4994799;28;20088;-84
2022/02/17 09:09:18;;;;;;;10.50;2.00;;;9.30;99.90;;;;;;4984318;28;20096;-84
2022/02/17 09:11:43;;;;;;;14.98;2.53;;;9.30;99.90;;;;;;4992238;28;20487;-84
2022/02/17 09:14:09;;;;;;;13.57;2.60;;;9.30;99.90;;;;;;4993611;28;20026;-84
2022/02/17 09:16:36;;;;;;;9.32;2.38;;;9.40;99.90;;;;;;4991704;28;20022;-84
2022/02/17 09:19:04;;;;;;;9.32;2.00;;;9.40;99.90;;;;;;4959914;28;20041;-84
2022/02/17 09:21:30;;;;;;;14.20;2.10;;;9.40;99.90;;;;;;5004912;28;20072;-84
2022/02/17 09:23:56;;;;;;;15.95;2.80;;;9.40;99.90;;;;;;4999676;28;20030;-84
2022/02/17 09:26:22;;;;;;;9.95;1.70;;;9.50;99.90;;;;;;5015540;28;20080;-85
2022/02/17 09:28:48;;;;;;;12.98;2.55;;;9.50;99.90;;;;;;5015524;28;20439;-84
2022/02/17 09:31:23;;;;;;;10.77;2.17;;;9.50;99.90;;;;;;5018414;28;20026;-86
2022/02/17 09:33:55;;;;;;;8.63;2.40;;;9.50;99.90;;;;;;5015201;28;20034;-85
2022/02/17 09:36:22;;;;;;;8.63;2.05;;;9.50;99.90;;;;;;5015031;28;20497;-84
2022/02/17 09:38:48;;;;;;;11.25;2.28;;;9.50;99.90;;;;;;5016202;28;20038;-85
2022/02/17 09:41:16;;;;;;;8.35;1.73;;;9.50;99.90;;;;;;5015614;28;20061;-85
2022/02/17 09:43:43;;;;;;;9.82;1.67;;;9.60;99.90;;;;;;5015048;28;20030;-86
2022/02/17 09:46:12;;;;;;;14.27;1.90;;;9.60;99.90;;;;;;5015380;28;20030;-85
2022/02/17 09:48:40;;;;;;;7.97;1.75;;;9.60;99.90;;;;;;4998919;28;20065;-86
2022/02/17 09:51:06;;;;;;;10.60;1.70;;;9.60;99.90;;;;;;5014619;28;20125;-84
2022/02/17 09:53:32;;;;;;;9.73;1.75;;;9.70;99.90;;;;;;5016639;28;20049;-84
2022/02/17 09:55:58;;;;;;;9.85;1.80;;;9.70;99.90;;;;;;4998193;28;20049;-84
2022/02/17 09:58:24;;;;;;;13.15;1.85;;;9.70;99.90;;;;;;5015165;28;20050;-84
2022/02/17 10:00:53;;;;;;;11.18;1.80;;;9.80;99.90;;;;;;5015393;28;20173;-85
2022/02/17 10:03:36;;;;;;;7.97;1.75;;;9.80;99.90;;;;;;4999255;28;20026;-83
2022/02/17 10:06:10;;;;;;;10.52;1.48;;;9.80;99.90;;;;;;5014966;28;20431;-85
2022/02/17 10:08:36;;;;;;;11.68;1.65;;;9.90;99.90;;;;;;5014934;28;20029;-83
2022/02/17 10:11:03;;;;;;;12.88;2.20;;;10.00;99.90;;;;;;5014712;28;20040;-83
2022/02/17 10:13:29;;;;;;;9.20;1.65;;;10.10;99.90;;;;;;5014833;28;20029;-82
2022/02/17 10:15:59;;;;;;;12.73;1.85;;;10.10;99.90;;;;;;4998652;28;20084;-83
2022/02/17 10:18:30;;;;;;;11.48;2.40;;;10.20;99.90;;;;;;5014937;28;20030;-83
2022/02/17 10:21:05;;;;;;;12.25;1.63;;;10.30;99.90;;;;;;5014870;28;20029;-85
2022/02/17 10:23:39;;;;;;;11.75;1.83;;;10.30;99.90;;;;;;5014982;28;20037;-84
2022/02/17 10:26:11;;;;;;;8.60;1.75;;;10.30;99.90;;;;;;5014391;28;20461;-84
2022/02/17 10:28:57;;;;;;;10.60;1.90;;;10.40;99.90;;;;;;5014945;28;20034;-84
2022/02/17 10:31:31;;;;;;;11.90;1.95;;;10.40;99.90;;;;;;5015821;28;20036;-84
2022/02/17 10:33:59;;;;;;;13.90;2.65;;;10.50;99.90;;;;;;5014697;28;20024;-83
2022/02/17 10:36:39;;;;;;;9.20;2.25;;;10.60;99.90;;;;;;5014289;28;20034;-86
2022/02/17 10:39:13;;;;;;;9.70;2.55;;;10.60;99.90;;;;;;5014381;28;20108;-84
2022/02/17 10:41:50;;;;;;;7.93;1.42;;;10.70;99.90;;;;;;5014465;28;20054;-84
2022/02/17 10:44:17;;;;;;;12.18;1.52;;;10.70;99.90;;;;;;5014209;28;20033;-83
2022/02/17 10:46:43;;;;;;;10.35;2.35;;;10.60;99.90;;;;;;5014594;28;20033;-81
2022/02/17 10:49:14;;;;;;;10.20;1.85;;;10.70;99.90;;;;;;4997675;28;20489;-86
2022/02/17 10:51:40;;;;;;;9.73;1.67;;;10.70;99.90;;;;;;4998702;28;20030;-82
2022/02/17 10:54:06;;;;;;;11.02;1.90;;;10.80;99.90;;;;;;4997830;28;20080;-83
2022/02/17 10:56:33;;;;;;;9.95;1.60;;;10.80;99.90;;;;;;5014119;28;20064;-83
2022/02/17 10:59:04;;;;;;;10.15;1.80;;;10.90;99.90;;;;;;5014390;28;20057;-82
2022/02/17 11:01:30;;;;;;;9.82;2.00;;;10.90;99.90;;;;;;4998150;28;20470;-82
2022/02/17 11:03:55;;;;;;;10.60;2.13;;;11.00;99.90;;;;;;4979943;28;20038;-82
2022/02/17 11:06:21;;;;;;;11.35;2.13;;;11.00;99.90;;;;;;4994065;28;20519;-82
2022/02/17 11:08:49;;;;;;;10.32;2.28;;;11.10;99.90;;;;;;4961955;28;20030;-83
2022/02/17 11:11:16;;;;;;;11.18;2.10;;;11.20;99.90;;;;;;5004677;28;20379;-82
2022/02/17 11:13:48;;;;;;;7.00;1.50;;;11.30;99.90;;;;;;5004898;28;20031;-82
2022/02/17 11:16:17;;;;;;;10.20;1.73;;;11.30;99.90;;;;;;5018907;28;20033;-83
2022/02/17 11:18:43;;;;;;;9.48;1.80;;;11.30;99.90;;;;;;5013744;28;20033;-82
2022/02/17 11:21:15;;;;;;;11.02;1.73;;;11.40;99.90;;;;;;5012947;28;20038;-88
2022/02/17 11:23:44;;;;;;;9.05;1.88;;;11.50;99.90;;;;;;5012579;28;20063;-88
2022/02/17 11:26:30;;;;;;;7.57;1.38;;;11.50;99.90;;;;;;4995771;28;20050;-89
2022/02/17 11:28:57;;;;;;;13.80;2.28;;;11.60;99.90;;;;;;5013941;28;20034;-83
2022/02/17 11:31:23;;;;;;;8.50;1.50;;;11.60;99.90;;;;;;5015269;28;20041;-84
2022/02/17 11:33:58;;;;;;;10.60;2.20;;;11.70;99.90;;;;;;4997154;28;20041;-84
2022/02/17 11:36:27;;;;;;;9.88;2.40;;;11.80;99.90;;;;;;5010400;28;20053;-84
2022/02/17 11:39:06;;;;;;;13.13;1.88;;;11.80;99.90;;;;;;5034241;28;20021;-85
2022/02/17 11:41:36;;;;;;;15.20;2.42;;;11.90;99.90;;;;;;5038260;28;20029;-84
2022/02/17 11:44:21;;;;;;;13.45;1.73;;;12.00;99.90;;;;;;5018546;28;20085;-86
2022/02/17 11:46:54;;;;;;;11.13;2.30;;;12.00;99.80;;;;;;5036084;28;20033;-85
2022/02/17 11:49:32;;;;;;;9.57;2.25;;;12.10;98.20;;;;;;5020616;28;20053;-85
2022/02/17 11:52:11;;;;;;;7.65;1.83;;;12.20;98.20;;;;;;5035352;28;20034;-84
2022/02/17 11:54:37;;;;;;;8.30;1.77;;;12.30;99.90;;;;;;5013432;28;20057;-84
2022/02/17 11:57:03;;;;;;;8.07;1.70;;;12.40;97.80;;;;;;5011115;28;20041;-84
2022/02/17 11:59:31;;;;;;;7.88;1.90;;;12.40;98.40;;;;;;5013357;28;20057;-84
2022/02/17 12:01:58;;;;;;;11.82;2.47;;;12.50;98.40;;;;;;5011482;28;20527;-84
2022/02/17 12:04:27;;;;;;;10.02;1.60;;;12.50;98.20;;;;;;5011088;28;20406;-84
2022/02/17 12:06:59;;;;;;;14.65;2.28;;;12.60;98.10;;;;;;5013719;28;20033;-86
2022/02/17 12:09:31;;;;;;;9.43;1.85;;;12.60;99.90;;;;;;5014672;28;20029;-84
2022/02/17 12:12:17;;;;;;;16.38;3.63;;;12.70;98.60;;;;;;5012217;28;20369;-85
2022/02/17 12:14:46;;;;;;;10.95;2.53;;;12.70;97.70;;;;;;5013824;28;20084;-85
2022/02/17 12:17:12;;;;;;;8.68;1.95;;;12.70;99.20;;;;;;5012347;28;20044;-86
2022/02/17 12:19:38;;;;;;;12.02;2.33;;;12.80;97.60;;;;;;5029226;28;20041;-86
2022/02/17 12:22:07;;;;;;;9.25;2.20;;;12.80;96.90;;;;;;5013849;28;20042;-86
2022/02/17 12:24:34;;;;;;;10.25;1.98;;;12.90;97.30;;;;;;5012355;28;20038;-85
2022/02/17 12:27:00;;;;;;;9.05;2.17;;;12.90;98.60;;;;;;5016409;28;20474;-86
2022/02/17 12:29:29;;;;;;;8.35;1.80;;;12.90;98.80;;;;;;5012849;28;20037;-85
2022/02/17 12:31:57;;;;;;;11.65;1.90;;;12.90;96.30;;;;;;5045718;28;20168;-86
2022/02/17 12:34:26;;;;;;;10.77;1.77;;;12.80;95.00;;;;;;5012626;28;20528;-85
2022/02/17 12:36:52;;;;;;;9.63;2.35;;;12.80;96.80;;;;;;5012390;28;20041;-86
2022/02/17 12:39:18;;;;;;;8.27;2.03;;;12.70;96.90;;;;;;5028622;28;20063;-86
2022/02/17 12:42:07;;;;;;;10.52;2.05;;;12.70;94.50;;;;;;5013508;28;20038;-85